sensor_id;sensor_type;location;lat;lon;timestamp;pressure;altitude;pressure_sealevel;temperature;humidity
64453;BME280;50813;52.654;6.766;2023-04-03T00:01:34;103140.00000000001;;;3.3;79.52
64453;BME280;50813;52.654;6.766;2023-04-03T00:04:47;103136.99999999999;;;3.04;80.44
64453;BME280;50813;52.654;6.766;2023-04-03T00:06:25;103132.0;;;2.8;81.09
64453;BME280;50813;52.654;6.766;2023-04-03T00:08:02;103132.0;;;2.9;81.16
64453;BME280;50813;52.654;6.766;2023-04-03T00:09:39;103136.99999999999;;;2.89;81.13
64453;BME280;50813;52.654;6.766;2023-04-03T00:12:52;103136.99999999999;;;3.0;80.97
64453;BME280;50813;52.654;6.766;2023-04-03T00:14:29;103139.00000000001;;;2.67;81.81
64453;BME280;50813;52.654;6.766;2023-04-03T00:16:06;103132.0;;;2.82;81.33
64453;BME280;50813;52.654;6.766;2023-04-03T00:19:20;103142.0;;;2.63;82.39
64453;BME280;50813;52.654;6.766;2023-04-03T00:20:57;103144.0;;;2.54;82.68
64453;BME280;50813;52.654;6.766;2023-04-03T00:22:34;103143.0;;;2.72;82.17
64453;BME280;50813;52.654;6.766;2023-04-03T00:24:10;103142.0;;;2.78;82.17
64453;BME280;50813;52.654;6.766;2023-04-03T00:27:24;103145.0;;;2.71;82.16
64453;BME280;50813;52.654;6.766;2023-04-03T00:29:00;103143.0;;;2.83;81.98
64453;BME280;50813;52.654;6.766;2023-04-03T00:30:36;103144.0;;;2.83;82.08
64453;BME280;50813;52.654;6.766;2023-04-03T00:33:49;103144.0;;;2.72;81.8
64453;BME280;50813;52.654;6.766;2023-04-03T00:35:27;103150.0;;;2.48;82.87
64453;BME280;50813;52.654;6.766;2023-04-03T00:37:05;103147.0;;;2.4;83.74
64453;BME280;50813;52.654;6.766;2023-04-03T00:40:18;103146.0;;;2.52;83.02
64453;BME280;50813;52.654;6.766;2023-04-03T00:41:54;103153.0;;;2.37;83.83
64453;BME280;50813;52.654;6.766;2023-04-03T00:43:31;103150.0;;;2.61;83.58
64453;BME280;50813;52.654;6.766;2023-04-03T00:45:27;103153.0;;;2.34;84.02
64453;BME280;50813;52.654;6.766;2023-04-03T00:48:48;103161.99999999999;;;2.44;84.51
64453;BME280;50813;52.654;6.766;2023-04-03T00:50:26;103157.0;;;2.48;83.9
64453;BME280;50813;52.654;6.766;2023-04-03T00:52:04;103158.0;;;2.42;84.01
64453;BME280;50813;52.654;6.766;2023-04-03T00:53:47;103159.99999999999;;;2.54;83.22
64453;BME280;50813;52.654;6.766;2023-04-03T00:57:02;103159.99999999999;;;2.31;83.04
64453;BME280;50813;52.654;6.766;2023-04-03T00:58:44;103166.00000000001;;;2.37;83.8
64453;BME280;50813;52.654;6.766;2023-04-03T01:00:25;103163.00000000001;;;2.38;84.02
64453;BME280;50813;52.654;6.766;2023-04-03T01:02:02;103165.00000000001;;;2.23;84.96
64453;BME280;50813;52.654;6.766;2023-04-03T01:05:16;103158.99999999999;;;2.11;85.4
64453;BME280;50813;52.654;6.766;2023-04-03T01:06:55;103159.99999999999;;;2.19;85.29
64453;BME280;50813;52.654;6.766;2023-04-03T01:08:32;103165.00000000001;;;2.0;85.51
64453;BME280;50813;52.654;6.766;2023-04-03T01:11:50;103167.0;;;2.27;85.08
64453;BME280;50813;52.654;6.766;2023-04-03T01:13:29;103168.0;;;2.09;85.42
64453;BME280;50813;52.654;6.766;2023-04-03T01:15:10;103168.0;;;2.27;84.98
64453;BME280;50813;52.654;6.766;2023-04-03T01:16:52;103167.0;;;2.34;84.98
64453;BME280;50813;52.654;6.766;2023-04-03T01:20:38;103173.0;;;2.14;85.62
64453;BME280;50813;52.654;6.766;2023-04-03T01:23:59;103170.0;;;2.12;86.02
64453;BME280;50813;52.654;6.766;2023-04-03T01:25:46;103173.0;;;2.04;86.2
64453;BME280;50813;52.654;6.766;2023-04-03T01:27:24;103167.0;;;2.14;86.25
64453;BME280;50813;52.654;6.766;2023-04-03T01:29:02;103174.0;;;2.19;85.95
64453;BME280;50813;52.654;6.766;2023-04-03T01:32:23;103172.0;;;1.84;87.07
64453;BME280;50813;52.654;6.766;2023-04-03T01:34:00;103181.0;;;2.02;87.01
64453;BME280;50813;52.654;6.766;2023-04-03T01:35:37;103183.0;;;2.16;86.43
64453;BME280;50813;52.654;6.766;2023-04-03T01:38:51;103183.99999999999;;;2.19;86.3
64453;BME280;50813;52.654;6.766;2023-04-03T01:40:28;103183.99999999999;;;2.06;86.39
64453;BME280;50813;52.654;6.766;2023-04-03T01:42:05;103183.99999999999;;;2.07;86.24
64453;BME280;50813;52.654;6.766;2023-04-03T01:43:42;103182.0;;;2.11;86.41
64453;BME280;50813;52.654;6.766;2023-04-03T01:46:55;103184.99999999999;;;2.04;86.85
64453;BME280;50813;52.654;6.766;2023-04-03T01:48:32;103183.0;;;1.71;87.81
64453;BME280;50813;52.654;6.766;2023-04-03T01:50:09;103179.0;;;1.88;88.08
64453;BME280;50813;52.654;6.766;2023-04-03T01:53:22;103183.0;;;1.87;88.15
64453;BME280;50813;52.654;6.766;2023-04-03T01:54:58;103182.0;;;1.9;88.37
64453;BME280;50813;52.654;6.766;2023-04-03T01:56:34;103183.99999999999;;;1.86;88.62
64453;BME280;50813;52.654;6.766;2023-04-03T01:59:47;103184.99999999999;;;1.81;88.67
64453;BME280;50813;52.654;6.766;2023-04-03T02:01:24;103182.0;;;1.87;88.49
64453;BME280;50813;52.654;6.766;2023-04-03T02:03:01;103184.99999999999;;;1.94;88.18
64453;BME280;50813;52.654;6.766;2023-04-03T02:04:38;103194.0;;;1.87;88.51
64453;BME280;50813;52.654;6.766;2023-04-03T02:07:52;103195.0;;;1.78;89.08
64453;BME280;50813;52.654;6.766;2023-04-03T02:09:27;103192.0;;;1.79;88.78
64453;BME280;50813;52.654;6.766;2023-04-03T02:11:04;103196.0;;;1.7;89.28
64453;BME280;50813;52.654;6.766;2023-04-03T02:15:52;103200.0;;;1.64;89.74
64453;BME280;50813;52.654;6.766;2023-04-03T02:17:29;103197.0;;;1.58;90.17
64453;BME280;50813;52.654;6.766;2023-04-03T02:20:41;103200.0;;;1.59;89.78
64453;BME280;50813;52.654;6.766;2023-04-03T02:22:17;103198.0;;;1.59;90.03
64453;BME280;50813;52.654;6.766;2023-04-03T02:23:53;103193.0;;;1.39;90.35
64453;BME280;50813;52.654;6.766;2023-04-03T02:25:30;103194.0;;;1.54;90.45
64453;BME280;50813;52.654;6.766;2023-04-03T02:28:44;103199.0;;;1.59;89.97
64453;BME280;50813;52.654;6.766;2023-04-03T02:30:20;103202.0;;;1.6;89.81
64453;BME280;50813;52.654;6.766;2023-04-03T02:31:56;103204.0;;;1.49;90.69
64453;BME280;50813;52.654;6.766;2023-04-03T02:35:11;103204.0;;;1.45;90.77
64453;BME280;50813;52.654;6.766;2023-04-03T02:36:47;103206.0;;;1.48;90.43
64453;BME280;50813;52.654;6.766;2023-04-03T02:38:24;103208.0;;;1.45;90.31
64453;BME280;50813;52.654;6.766;2023-04-03T02:41:37;103208.99999999999;;;1.44;90.21
64453;BME280;50813;52.654;6.766;2023-04-03T02:43:13;103208.0;;;1.46;90.36
64453;BME280;50813;52.654;6.766;2023-04-03T02:44:49;103208.0;;;1.35;90.41
64453;BME280;50813;52.654;6.766;2023-04-03T02:46:25;103211.99999999999;;;1.42;90.87
64453;BME280;50813;52.654;6.766;2023-04-03T02:49:38;103211.99999999999;;;1.35;90.7
64453;BME280;50813;52.654;6.766;2023-04-03T02:51:14;103208.99999999999;;;1.36;90.8
64453;BME280;50813;52.654;6.766;2023-04-03T02:52:50;103215.00000000001;;;1.28;91.72
64453;BME280;50813;52.654;6.766;2023-04-03T02:56:02;103217.0;;;1.24;92.01
64453;BME280;50813;52.654;6.766;2023-04-03T02:57:38;103217.0;;;1.27;91.68
64453;BME280;50813;52.654;6.766;2023-04-03T02:59:15;103216.00000000001;;;1.32;91.35
64453;BME280;50813;52.654;6.766;2023-04-03T03:02:28;103220.0;;;1.22;91.58
64453;BME280;50813;52.654;6.766;2023-04-03T03:04:04;103217.0;;;1.26;91.5
64453;BME280;50813;52.654;6.766;2023-04-03T03:05:40;103218.0;;;1.25;91.53
64453;BME280;50813;52.654;6.766;2023-04-03T03:08:53;103221.0;;;1.18;91.76
64453;BME280;50813;52.654;6.766;2023-04-03T03:10:29;103215.00000000001;;;1.17;92.0
64453;BME280;50813;52.654;6.766;2023-04-03T03:12:05;103215.00000000001;;;1.14;91.6
64453;BME280;50813;52.654;6.766;2023-04-03T03:13:41;103218.0;;;1.0;92.55
64453;BME280;50813;52.654;6.766;2023-04-03T03:16:54;103219.0;;;1.13;92.77
64453;BME280;50813;52.654;6.766;2023-04-03T03:18:30;103222.0;;;1.1;92.59
64453;BME280;50813;52.654;6.766;2023-04-03T03:20:07;103220.0;;;1.18;92.0
64453;BME280;50813;52.654;6.766;2023-04-03T03:23:21;103218.0;;;1.02;92.26
64453;BME280;50813;52.654;6.766;2023-04-03T03:25:00;103219.0;;;1.03;92.61
64453;BME280;50813;52.654;6.766;2023-04-03T03:26:36;103219.0;;;1.01;92.53
64453;BME280;50813;52.654;6.766;2023-04-03T03:29:50;103219.0;;;1.03;92.76
64453;BME280;50813;52.654;6.766;2023-04-03T03:31:26;103217.0;;;0.96;93.34
64453;BME280;50813;52.654;6.766;2023-04-03T03:33:02;103218.0;;;0.93;93.37
64453;BME280;50813;52.654;6.766;2023-04-03T03:34:39;103224.0;;;0.91;93.6
64453;BME280;50813;52.654;6.766;2023-04-03T03:37:51;103224.0;;;0.77;94.22
64453;BME280;50813;52.654;6.766;2023-04-03T03:39:28;103222.0;;;0.85;94.27
64453;BME280;50813;52.654;6.766;2023-04-03T03:41:04;103221.0;;;0.88;94.14
64453;BME280;50813;52.654;6.766;2023-04-03T03:44:16;103230.0;;;0.82;94.35
64453;BME280;50813;52.654;6.766;2023-04-03T03:45:53;103231.0;;;0.84;94.0
64453;BME280;50813;52.654;6.766;2023-04-03T03:47:30;103231.0;;;0.86;93.4
64453;BME280;50813;52.654;6.766;2023-04-03T03:50:42;103227.0;;;0.81;93.89
64453;BME280;50813;52.654;6.766;2023-04-03T03:52:18;103229.0;;;0.75;94.42
64453;BME280;50813;52.654;6.766;2023-04-03T03:53:54;103234.99999999999;;;0.65;94.68
64453;BME280;50813;52.654;6.766;2023-04-03T03:55:31;103240.00000000001;;;0.66;95.13
64453;BME280;50813;52.654;6.766;2023-04-03T03:58:44;103245.0;;;0.58;95.25
64453;BME280;50813;52.654;6.766;2023-04-03T04:00:20;103245.0;;;0.66;95.47
64453;BME280;50813;52.654;6.766;2023-04-03T04:05:09;103243.0;;;0.66;94.81
64453;BME280;50813;52.654;6.766;2023-04-03T04:06:45;103247.0;;;0.72;94.33
64453;BME280;50813;52.654;6.766;2023-04-03T04:08:21;103252.0;;;0.66;93.97
64453;BME280;50813;52.654;6.766;2023-04-03T04:11:34;103245.0;;;0.68;94.51
64453;BME280;50813;52.654;6.766;2023-04-03T04:13:10;103249.0;;;0.63;94.78
64453;BME280;50813;52.654;6.766;2023-04-03T04:14:46;103249.0;;;0.57;94.6
64453;BME280;50813;52.654;6.766;2023-04-03T04:16:22;103253.0;;;0.6;94.28
64453;BME280;50813;52.654;6.766;2023-04-03T04:19:35;103254.0;;;0.54;94.38
64453;BME280;50813;52.654;6.766;2023-04-03T04:21:11;103255.0;;;0.47;94.71
64453;BME280;50813;52.654;6.766;2023-04-03T04:22:47;103255.0;;;0.53;94.29
64453;BME280;50813;52.654;6.766;2023-04-03T04:26:00;103256.0;;;0.5;94.5
64453;BME280;50813;52.654;6.766;2023-04-03T04:27:36;103261.99999999999;;;0.49;94.65
64453;BME280;50813;52.654;6.766;2023-04-03T04:29:13;103257.0;;;0.42;95.22
64453;BME280;50813;52.654;6.766;2023-04-03T04:32:26;103263.00000000001;;;0.4;95.08
64453;BME280;50813;52.654;6.766;2023-04-03T04:34:02;103267.0;;;0.41;95.23
64453;BME280;50813;52.654;6.766;2023-04-03T04:35:38;103267.0;;;0.38;95.35
64453;BME280;50813;52.654;6.766;2023-04-03T04:38:50;103268.0;;;0.3;95.38
64453;BME280;50813;52.654;6.766;2023-04-03T04:40:28;103271.0;;;0.29;95.36
64453;BME280;50813;52.654;6.766;2023-04-03T04:42:04;103267.0;;;0.22;95.82
64453;BME280;50813;52.654;6.766;2023-04-03T04:43:40;103273.0;;;0.18;96.56
64453;BME280;50813;52.654;6.766;2023-04-03T04:46:53;103273.0;;;0.16;96.87
64453;BME280;50813;52.654;6.766;2023-04-03T04:48:28;103279.0;;;0.21;96.09
64453;BME280;50813;52.654;6.766;2023-04-03T04:50:05;103279.0;;;0.21;96.6
64453;BME280;50813;52.654;6.766;2023-04-03T04:53:18;103283.99999999999;;;0.23;96.35
64453;BME280;50813;52.654;6.766;2023-04-03T04:54:54;103283.99999999999;;;0.16;96.71
64453;BME280;50813;52.654;6.766;2023-04-03T04:56:31;103289.00000000001;;;0.04;96.78
64453;BME280;50813;52.654;6.766;2023-04-03T04:59:43;103292.0;;;0.18;97.05
64453;BME280;50813;52.654;6.766;2023-04-03T05:01:19;103293.0;;;0.21;96.73
64453;BME280;50813;52.654;6.766;2023-04-03T05:02:55;103294.0;;;-0.09;96.88
64453;BME280;50813;52.654;6.766;2023-04-03T05:04:31;103293.0;;;0.08;97.52
64453;BME280;50813;52.654;6.766;2023-04-03T05:07:44;103296.0;;;0.16;96.99
64453;BME280;50813;52.654;6.766;2023-04-03T05:09:20;103295.0;;;0.12;97.29
64453;BME280;50813;52.654;6.766;2023-04-03T05:10:56;103296.0;;;0.12;97.36
64453;BME280;50813;52.654;6.766;2023-04-03T05:14:09;103298.0;;;0.11;97.33
64453;BME280;50813;52.654;6.766;2023-04-03T05:15:45;103295.0;;;0.09;97.11
64453;BME280;50813;52.654;6.766;2023-04-03T05:17:22;103295.0;;;0.06;97.24
64453;BME280;50813;52.654;6.766;2023-04-03T05:20:35;103292.0;;;0.02;97.67
64453;BME280;50813;52.654;6.766;2023-04-03T05:22:11;103295.0;;;0.08;97.35
64453;BME280;50813;52.654;6.766;2023-04-03T05:23:47;103297.0;;;0.0;97.35
64453;BME280;50813;52.654;6.766;2023-04-03T05:26:59;103294.0;;;0.0;97.51
64453;BME280;50813;52.654;6.766;2023-04-03T05:28:36;103302.0;;;0.11;96.71
64453;BME280;50813;52.654;6.766;2023-04-03T05:30:13;103301.0;;;0.04;97.23
64453;BME280;50813;52.654;6.766;2023-04-03T05:31:50;103298.0;;;0.04;97.02
64453;BME280;50813;52.654;6.766;2023-04-03T05:35:03;103303.0;;;0.02;97.18
64453;BME280;50813;52.654;6.766;2023-04-03T05:36:40;103307.0;;;0.02;97.41
64453;BME280;50813;52.654;6.766;2023-04-03T05:38:16;103308.0;;;0.08;97.17
64453;BME280;50813;52.654;6.766;2023-04-03T05:41:28;103306.0;;;0.11;96.85
64453;BME280;50813;52.654;6.766;2023-04-03T05:43:04;103313.00000000001;;;0.08;97.13
64453;BME280;50813;52.654;6.766;2023-04-03T05:44:41;103317.0;;;0.16;97.24
64453;BME280;50813;52.654;6.766;2023-04-03T05:47:55;103315.00000000001;;;0.09;97.44
64453;BME280;50813;52.654;6.766;2023-04-03T05:49:32;103311.99999999999;;;0.12;97.45
64453;BME280;50813;52.654;6.766;2023-04-03T05:51:14;103323.0;;;-0.04;97.86
64453;BME280;50813;52.654;6.766;2023-04-03T05:52:52;103322.0;;;-0.05;99.39
64453;BME280;50813;52.654;6.766;2023-04-03T05:56:07;103321.0;;;0.17;98.33
64453;BME280;50813;52.654;6.766;2023-04-03T05:57:43;103327.0;;;0.25;98.5
64453;BME280;50813;52.654;6.766;2023-04-03T05:59:20;103329.0;;;0.39;97.89
64453;BME280;50813;52.654;6.766;2023-04-03T06:02:33;103328.0;;;0.42;98.47
64453;BME280;50813;52.654;6.766;2023-04-03T06:04:09;103328.0;;;0.43;98.23
64453;BME280;50813;52.654;6.766;2023-04-03T06:05:46;103322.0;;;0.61;98.16
64453;BME280;50813;52.654;6.766;2023-04-03T06:07:23;103326.0;;;0.67;97.11
64453;BME280;50813;52.654;6.766;2023-04-03T06:10:36;103324.0;;;0.73;97.17
64453;BME280;50813;52.654;6.766;2023-04-03T06:12:13;103328.0;;;0.9;96.11
64453;BME280;50813;52.654;6.766;2023-04-03T06:13:50;103330.0;;;0.94;95.77
64453;BME280;50813;52.654;6.766;2023-04-03T06:17:02;103333.0;;;1.03;94.45
64453;BME280;50813;52.654;6.766;2023-04-03T06:18:39;103334.99999999999;;;1.12;94.35
64453;BME280;50813;52.654;6.766;2023-04-03T06:25:13;103339.00000000001;;;1.5;92.6
64453;BME280;50813;52.654;6.766;2023-04-03T06:26:50;103340.00000000001;;;1.61;91.51
64453;BME280;50813;52.654;6.766;2023-04-03T06:28:26;103342.0;;;1.52;91.46
64453;BME280;50813;52.654;6.766;2023-04-03T06:31:38;103333.99999999999;;;1.68;90.83
64453;BME280;50813;52.654;6.766;2023-04-03T06:33:14;103336.99999999999;;;1.86;90.31
64453;BME280;50813;52.654;6.766;2023-04-03T06:34:50;103338.00000000001;;;1.96;90.02
64453;BME280;50813;52.654;6.766;2023-04-03T06:38:02;103338.00000000001;;;1.88;88.89
64453;BME280;50813;52.654;6.766;2023-04-03T06:39:39;103342.0;;;2.19;88.3
64453;BME280;50813;52.654;6.766;2023-04-03T06:41:15;103344.0;;;2.29;87.48
64453;BME280;50813;52.654;6.766;2023-04-03T06:42:52;103341.00000000001;;;2.32;86.97
64453;BME280;50813;52.654;6.766;2023-04-03T06:46:04;103343.0;;;2.5;86.58
64453;BME280;50813;52.654;6.766;2023-04-03T06:47:40;103342.0;;;2.44;85.84
64453;BME280;50813;52.654;6.766;2023-04-03T06:49:17;103344.0;;;2.44;85.79
64453;BME280;50813;52.654;6.766;2023-04-03T06:52:29;103347.0;;;2.48;85.37
64453;BME280;50813;52.654;6.766;2023-04-03T06:54:06;103352.0;;;2.54;84.44
64453;BME280;50813;52.654;6.766;2023-04-03T06:55:42;103357.0;;;2.67;83.2
64453;BME280;50813;52.654;6.766;2023-04-03T06:58:55;103365.00000000001;;;2.8;83.28
64453;BME280;50813;52.654;6.766;2023-04-03T07:00:32;103368.0;;;2.95;82.75
64453;BME280;50813;52.654;6.766;2023-04-03T07:02:10;103368.0;;;3.08;81.42
64453;BME280;50813;52.654;6.766;2023-04-03T07:03:48;103367.0;;;3.09;80.74
64453;BME280;50813;52.654;6.766;2023-04-03T07:07:01;103368.0;;;3.18;80.72
64453;BME280;50813;52.654;6.766;2023-04-03T07:08:38;103367.0;;;3.36;79.89
64453;BME280;50813;52.654;6.766;2023-04-03T07:10:14;103369.0;;;3.32;78.91
64453;BME280;50813;52.654;6.766;2023-04-03T07:13:27;103367.0;;;3.19;77.99
64453;BME280;50813;52.654;6.766;2023-04-03T07:15:04;103373.0;;;3.24;77.53
64453;BME280;50813;52.654;6.766;2023-04-03T07:16:40;103375.0;;;3.31;77.66
64453;BME280;50813;52.654;6.766;2023-04-03T07:19:53;103377.0;;;3.39;76.38
64453;BME280;50813;52.654;6.766;2023-04-03T07:21:29;103383.99999999999;;;3.39;76.08
64453;BME280;50813;52.654;6.766;2023-04-03T07:23:06;103390.00000000001;;;3.68;76.94
64453;BME280;50813;52.654;6.766;2023-04-03T07:24:42;103388.00000000001;;;3.62;75.75
64453;BME280;50813;52.654;6.766;2023-04-03T07:27:54;103391.00000000001;;;3.62;74.94
64453;BME280;50813;52.654;6.766;2023-04-03T07:29:31;103395.0;;;3.76;75.72
64453;BME280;50813;52.654;6.766;2023-04-03T07:31:10;103400.0;;;3.77;74.25
64453;BME280;50813;52.654;6.766;2023-04-03T07:34:24;103398.0;;;3.66;73.23
64453;BME280;50813;52.654;6.766;2023-04-03T07:36:01;103399.0;;;3.86;73.34
64453;BME280;50813;52.654;6.766;2023-04-03T07:37:37;103399.0;;;3.83;71.99
64453;BME280;50813;52.654;6.766;2023-04-03T07:40:50;103402.0;;;3.93;72.91
64453;BME280;50813;52.654;6.766;2023-04-03T07:42:26;103401.0;;;3.91;72.99
64453;BME280;50813;52.654;6.766;2023-04-03T07:44:02;103404.0;;;4.0;72.11
64453;BME280;50813;52.654;6.766;2023-04-03T07:45:40;103402.0;;;4.16;71.45
64453;BME280;50813;52.654;6.766;2023-04-03T07:48:55;103395.0;;;4.47;71.66
64453;BME280;50813;52.654;6.766;2023-04-03T07:50:31;103400.0;;;4.67;71.0
64453;BME280;50813;52.654;6.766;2023-04-03T07:52:07;103400.0;;;4.36;68.0
64453;BME280;50813;52.654;6.766;2023-04-03T07:55:19;103400.0;;;4.37;69.64
64453;BME280;50813;52.654;6.766;2023-04-03T07:56:55;103402.0;;;4.88;70.08
64453;BME280;50813;52.654;6.766;2023-04-03T07:58:31;103408.99999999999;;;4.8;66.94
64453;BME280;50813;52.654;6.766;2023-04-03T08:01:44;103409.99999999999;;;4.78;65.67
64453;BME280;50813;52.654;6.766;2023-04-03T08:03:21;103408.0;;;4.46;64.7
64453;BME280;50813;52.654;6.766;2023-04-03T08:04:57;103411.99999999999;;;4.74;66.1
64453;BME280;50813;52.654;6.766;2023-04-03T08:06:33;103417.0;;;4.71;64.08
64453;BME280;50813;52.654;6.766;2023-04-03T08:09:47;103414.00000000001;;;4.72;64.48
64453;BME280;50813;52.654;6.766;2023-04-03T08:11:23;103411.99999999999;;;4.66;63.2
64453;BME280;50813;52.654;6.766;2023-04-03T08:12:59;103418.0;;;5.16;65.17
64453;BME280;50813;52.654;6.766;2023-04-03T08:16:16;103417.0;;;5.15;61.22
64453;BME280;50813;52.654;6.766;2023-04-03T08:17:54;103417.0;;;5.25;61.52
64453;BME280;50813;52.654;6.766;2023-04-03T08:19:30;103411.99999999999;;;5.57;62.47
64453;BME280;50813;52.654;6.766;2023-04-03T08:21:08;103413.00000000001;;;5.33;61.66
64453;BME280;50813;52.654;6.766;2023-04-03T08:24:20;103418.0;;;5.46;61.43
64453;BME280;50813;52.654;6.766;2023-04-03T08:25:56;103420.0;;;5.4;60.06
64453;BME280;50813;52.654;6.766;2023-04-03T08:27:32;103419.0;;;5.69;58.68
64453;BME280;50813;52.654;6.766;2023-04-03T08:30:46;103417.0;;;5.69;56.66
64453;BME280;50813;52.654;6.766;2023-04-03T08:32:22;103415.00000000001;;;6.18;57.77
64453;BME280;50813;52.654;6.766;2023-04-03T08:33:58;103411.99999999999;;;6.14;57.04
64453;BME280;50813;52.654;6.766;2023-04-03T08:37:14;103409.99999999999;;;6.32;57.34
64453;BME280;50813;52.654;6.766;2023-04-03T08:38:50;103413.00000000001;;;6.03;56.43
64453;BME280;50813;52.654;6.766;2023-04-03T08:40:28;103408.0;;;6.45;57.3
64453;BME280;50813;52.654;6.766;2023-04-03T08:42:14;103411.99999999999;;;6.67;54.66
64453;BME280;50813;52.654;6.766;2023-04-03T08:45:44;103415.00000000001;;;6.77;54.81
64453;BME280;50813;52.654;6.766;2023-04-03T08:47:24;103409.99999999999;;;7.04;54.91
64453;BME280;50813;52.654;6.766;2023-04-03T08:49:07;103416.00000000001;;;6.72;55.79
64453;BME280;50813;52.654;6.766;2023-04-03T08:50:52;103415.00000000001;;;6.92;55.42
64453;BME280;50813;52.654;6.766;2023-04-03T08:52:34;103417.0;;;6.67;50.12
64453;BME280;50813;52.654;6.766;2023-04-03T08:56:05;103408.0;;;6.67;50.06
64453;BME280;50813;52.654;6.766;2023-04-03T08:57:45;103413.00000000001;;;6.67;51.79
64453;BME280;50813;52.654;6.766;2023-04-03T08:59:27;103416.00000000001;;;6.93;52.84
64453;BME280;50813;52.654;6.766;2023-04-03T09:01:10;103417.0;;;6.91;51.06
64453;BME280;50813;52.654;6.766;2023-04-03T09:04:32;103418.0;;;7.12;49.95
64453;BME280;50813;52.654;6.766;2023-04-03T09:06:14;103419.0;;;7.05;49.15
64453;BME280;50813;52.654;6.766;2023-04-03T09:07:57;103417.0;;;6.8;48.92
64453;BME280;50813;52.654;6.766;2023-04-03T09:09:39;103419.0;;;7.26;50.9
64453;BME280;50813;52.654;6.766;2023-04-03T09:13:05;103418.0;;;7.49;51.49
64453;BME280;50813;52.654;6.766;2023-04-03T09:14:53;103414.00000000001;;;7.06;50.45
64453;BME280;50813;52.654;6.766;2023-04-03T09:16:39;103413.00000000001;;;6.94;48.72
64453;BME280;50813;52.654;6.766;2023-04-03T09:18:30;103409.99999999999;;;6.88;49.56
64453;BME280;50813;52.654;6.766;2023-04-03T09:20:16;103408.0;;;6.71;50.24
64453;BME280;50813;52.654;6.766;2023-04-03T09:21:56;103408.99999999999;;;6.73;50.6
64453;BME280;50813;52.654;6.766;2023-04-03T09:25:20;103409.99999999999;;;6.77;48.31
64453;BME280;50813;52.654;6.766;2023-04-03T09:27:01;103414.00000000001;;;6.76;48.5
64453;BME280;50813;52.654;6.766;2023-04-03T09:28:41;103406.0;;;6.79;45.72
64453;BME280;50813;52.654;6.766;2023-04-03T09:30:20;103406.0;;;7.0;47.83
64453;BME280;50813;52.654;6.766;2023-04-03T09:33:37;103406.0;;;7.31;47.7
64453;BME280;50813;52.654;6.766;2023-04-03T09:35:19;103402.0;;;7.49;47.55
64453;BME280;50813;52.654;6.766;2023-04-03T09:36:58;103401.0;;;7.52;47.19
64453;BME280;50813;52.654;6.766;2023-04-03T09:38:35;103397.0;;;7.78;48.54
64453;BME280;50813;52.654;6.766;2023-04-03T09:42:22;103400.0;;;7.85;48.1
64453;BME280;50813;52.654;6.766;2023-04-03T09:43:59;103394.0;;;7.89;45.61
64453;BME280;50813;52.654;6.766;2023-04-03T09:45:35;103391.00000000001;;;8.23;46.12
64453;BME280;50813;52.654;6.766;2023-04-03T09:47:18;103392.0;;;8.25;45.2
64453;BME280;50813;52.654;6.766;2023-04-03T09:49:03;103398.0;;;8.38;47.2
64453;BME280;50813;52.654;6.766;2023-04-03T09:52:33;103389.00000000001;;;8.23;44.7
64453;BME280;50813;52.654;6.766;2023-04-03T09:54:31;103388.00000000001;;;8.36;44.74
64453;BME280;50813;52.654;6.766;2023-04-03T09:56:20;103383.99999999999;;;8.19;42.18
64453;BME280;50813;52.654;6.766;2023-04-03T09:58:00;103390.00000000001;;;7.94;42.86
64453;BME280;50813;52.654;6.766;2023-04-03T09:59:43;103386.99999999999;;;7.83;42.33
64453;BME280;50813;52.654;6.766;2023-04-03T10:03:04;103380.0;;;8.03;42.99
64453;BME280;50813;52.654;6.766;2023-04-03T10:04:42;103379.0;;;8.25;44.44
64453;BME280;50813;52.654;6.766;2023-04-03T10:06:23;103379.0;;;8.41;43.68
64453;BME280;50813;52.654;6.766;2023-04-03T10:08:08;103377.0;;;8.39;40.82
64453;BME280;50813;52.654;6.766;2023-04-03T10:10:00;103371.0;;;8.11;41.59
64453;BME280;50813;52.654;6.766;2023-04-03T10:13:34;103374.0;;;7.7;40.6
64453;BME280;50813;52.654;6.766;2023-04-03T10:15:12;103377.0;;;7.66;41.86
64453;BME280;50813;52.654;6.766;2023-04-03T10:16:58;103380.0;;;7.67;42.25
64453;BME280;50813;52.654;6.766;2023-04-03T10:18:41;103373.0;;;7.68;43.6
64453;BME280;50813;52.654;6.766;2023-04-03T10:22:16;103373.0;;;8.0;44.43
64453;BME280;50813;52.654;6.766;2023-04-03T10:24:02;103370.0;;;8.05;43.44
64453;BME280;50813;52.654;6.766;2023-04-03T10:25:53;103373.0;;;7.67;41.65
64453;BME280;50813;52.654;6.766;2023-04-03T10:27:38;103363.00000000001;;;8.0;43.25
64453;BME280;50813;52.654;6.766;2023-04-03T10:29:28;103358.0;;;7.98;41.61
64453;BME280;50813;52.654;6.766;2023-04-03T10:31:19;103359.99999999999;;;7.82;42.7
64453;BME280;50813;52.654;6.766;2023-04-03T10:33:08;103358.0;;;8.26;46.8
64453;BME280;50813;52.654;6.766;2023-04-03T10:36:42;103358.99999999999;;;8.51;44.71
64453;BME280;50813;52.654;6.766;2023-04-03T10:38:31;103366.00000000001;;;8.39;43.07
64453;BME280;50813;52.654;6.766;2023-04-03T10:40:23;103365.00000000001;;;8.57;46.05
64453;BME280;50813;52.654;6.766;2023-04-03T10:42:08;103364.00000000001;;;8.8;43.25
64453;BME280;50813;52.654;6.766;2023-04-03T10:43:59;103358.0;;;9.06;44.0
64453;BME280;50813;52.654;6.766;2023-04-03T10:45:55;103358.99999999999;;;9.14;44.41
64453;BME280;50813;52.654;6.766;2023-04-03T10:49:28;103359.99999999999;;;9.31;42.83
64453;BME280;50813;52.654;6.766;2023-04-03T10:51:19;103356.0;;;9.28;41.84
64453;BME280;50813;52.654;6.766;2023-04-03T10:53:05;103356.0;;;9.08;40.6
64453;BME280;50813;52.654;6.766;2023-04-03T10:54:48;103361.99999999999;;;8.98;39.96
64453;BME280;50813;52.654;6.766;2023-04-03T10:56:35;103367.0;;;8.67;40.25
64453;BME280;50813;52.654;6.766;2023-04-03T10:58:20;103364.00000000001;;;8.74;41.4
64453;BME280;50813;52.654;6.766;2023-04-03T11:01:42;103361.99999999999;;;8.65;41.49